Observation data for Gail on 11/11/2019      Previous  Date       Current Mesonet Observations  Soil Data  Daily Summary Page  Observations in Plain Language
KGGS 110600Z 22011KT 17/13 A2987 RMK A01 T01690126  RH  079%=      5-min Rain = 0
KGGS 110605Z 22011KT 17/13 A2987 RMK A01 T01670126  RH  079%=      5-min Rain = 0
KGGS 110610Z 22010KT 17/13 A2987 RMK A01 T01660125  RH  080%=      5-min Rain = 0
KGGS 110615Z 22010KT 17/13 A2987 RMK A01 T01650125  RH  080%=      5-min Rain = 0
KGGS 110620Z 22010KT 16/13 A2987 RMK A01 T01640125  RH  081%=      5-min Rain = 0
KGGS 110625Z 22010KT 16/13 A2987 RMK A01 T01640125  RH  081%=      5-min Rain = 0
KGGS 110630Z 22011KT 16/13 A2987 RMK A01 T01630125  RH  081%=      5-min Rain = 0
KGGS 110635Z 22010KT 16/13 A2987 RMK A01 T01620125  RH  082%=      5-min Rain = 0
KGGS 110640Z 22011KT 16/13 A2987 RMK A01 T01620125  RH  082%=      5-min Rain = 0
KGGS 110645Z 22010KT 16/12 A2987 RMK A01 T01610124  RH  082%=      5-min Rain = 0
KGGS 110650Z 22011KT 16/12 A2987 RMK A01 T01600124  RH  082%=      5-min Rain = 0
KGGS 110655Z 22011KT 16/12 A2987 RMK A01 T01590124  RH  083%=      5-min Rain = 0
KGGS 110700Z 22011KT 16/12 A2987 RMK A01 T01580124  RH  083%=      5-min Rain = 0
KGGS 110705Z 21011KT 16/12 A2987 RMK A01 T01570123  RH  083%=      5-min Rain = 0
KGGS 110710Z 21011KT 16/12 A2987 RMK A01 T01560123  RH  084%=      5-min Rain = 0
KGGS 110715Z 21011KT 16/12 A2987 RMK A01 T01560123  RH  084%=      5-min Rain = 0
KGGS 110720Z 21011KT 16/12 A2987 RMK A01 T01550123  RH  084%=      5-min Rain = 0
KGGS 110725Z 22011KT 15/12 A2987 RMK A01 T01540123  RH  085%=      5-min Rain = 0
KGGS 110730Z 22011KT 15/12 A2987 RMK A01 T01540123  RH  085%=      5-min Rain = 0
KGGS 110735Z 22012KT 16/12 A2987 RMK A01 T01550123  RH  085%=      5-min Rain = 0
KGGS 110740Z 22012KT 16/12 A2987 RMK A01 T01550123  RH  085%=      5-min Rain = 0
KGGS 110745Z 21012KT 15/12 A2987 RMK A01 T01540123  RH  085%=      5-min Rain = 0
KGGS 110750Z 21011KT 15/12 A2987 RMK A01 T01530123  RH  085%=      5-min Rain = 0
KGGS 110755Z 21011KT 15/12 A2987 RMK A01 T01530123  RH  085%=      5-min Rain = 0
KGGS 110800Z 21011KT 15/12 A2987 RMK A01 T01520123  RH  086%=      5-min Rain = 0
KGGS 110805Z 21011KT 15/12 A2987 RMK A01 T01520123  RH  086%=      5-min Rain = 0
KGGS 110810Z 21011KT 15/12 A2987 RMK A01 T01510123  RH  086%=      5-min Rain = 0
KGGS 110815Z 21011KT 15/12 A2987 RMK A01 T01510123  RH  086%=      5-min Rain = 0
KGGS 110820Z 22010KT 15/12 A2987 RMK A01 T01510122  RH  086%=      5-min Rain = 0
KGGS 110825Z 22010KT 15/12 A2987 RMK A01 T01500122  RH  087%=      5-min Rain = 0
KGGS 110830Z 21009KT 15/12 A2987 RMK A01 T01490122  RH  087%=      5-min Rain = 0
KGGS 110835Z 22010KT 15/12 A2987 RMK A01 T01480122  RH  087%=      5-min Rain = 0
KGGS 110840Z 22010KT 15/12 A2987 RMK A01 T01480122  RH  088%=      5-min Rain = 0
KGGS 110845Z 22010KT 15/12 A2987 RMK A01 T01470121  RH  088%=      5-min Rain = 0
KGGS 110850Z 21011KT 15/12 A2987 RMK A01 T01460121  RH  088%=      5-min Rain = 0
KGGS 110855Z 21010KT 15/12 A2987 RMK A01 T01450121  RH  089%=      5-min Rain = 0
KGGS 110900Z 22011KT 15/12 A2987 RMK A01 T01450121  RH  089%=      5-min Rain = 0
KGGS 110905Z 21011KT 15/12 A2987 RMK A01 T01460121  RH  089%=      5-min Rain = 0
KGGS 110910Z 21011KT 15/12 A2987 RMK A01 T01450121  RH  089%=      5-min Rain = 0
KGGS 110915Z 22011KT 15/12 A2987 RMK A01 T01450121  RH  089%=      5-min Rain = 0
KGGS 110920Z 22011KT 15/12 A2987 RMK A01 T01450121  RH  089%=      5-min Rain = 0
KGGS 110925Z 22010KT 14/12 A2987 RMK A01 T01440121  RH  089%=      5-min Rain = 0
KGGS 110930Z 22010KT 14/12 A2987 RMK A01 T01430120  RH  089%=      5-min Rain = 0
KGGS 110935Z 22010KT 14/12 A2987 RMK A01 T01430120  RH  090%=      5-min Rain = 0
KGGS 110940Z 22010KT 14/12 A2987 RMK A01 T01430121  RH  090%=      5-min Rain = 0
KGGS 110945Z 22011KT 14/12 A2987 RMK A01 T01430121  RH  090%=      5-min Rain = 0
KGGS 110950Z 22010KT 14/12 A2987 RMK A01 T01430121  RH  090%=      5-min Rain = 0
KGGS 110955Z 22010KT 14/12 A2987 RMK A01 T01430121  RH  090%=      5-min Rain = 0
KGGS 111000Z 23010KT 14/12 A2987 RMK A01 T01430121  RH  090%=      5-min Rain = 0
KGGS 111005Z 23010KT 14/12 A2987 RMK A01 T01430121  RH  090%=      5-min Rain = 0
KGGS 111010Z 23009KT 14/12 A2987 RMK A01 T01430121  RH  090%=      5-min Rain = 0
KGGS 111015Z 23010KT 14/12 A2987 RMK A01 T01430121  RH  090%=      5-min Rain = 0
KGGS 111020Z 24007G13KT 14/12 A2988 RMK A01 T01430121  RH  090%=      5-min Rain = 0
KGGS 111025Z 00011G17KT 14/12 A299 RMK A01 T01430121  RH  090%=      5-min Rain = 0
KGGS 111030Z 33006G13KT 15/13 A2991 RMK A01 T01490126  RH  089%=      5-min Rain = 0
KGGS 111035Z 35006KT 15/12 A2991 RMK A01 T01480122  RH  087%=      5-min Rain = 0
KGGS 111040Z 32004KT 15/12 A2991 RMK A01 T01460120  RH  088%=      5-min Rain = 0
KGGS 111045Z 31005KT 15/12 A2992 RMK A01 T01450119  RH  088%=      5-min Rain = 0
KGGS 111050Z 33005KT 14/12 A2992 RMK A01 T01440118  RH  088%=      5-min Rain = 0
KGGS 111055Z 34005KT 14/12 A2992 RMK A01 T01430117  RH  088%=      5-min Rain = 0
KGGS 111100Z 34006KT 14/12 A2993 RMK A01 T01420116  RH  088%=      5-min Rain = 0
KGGS 111105Z 31005KT 14/12 A2993 RMK A01 T01410116  RH  088%=      5-min Rain = 0
KGGS 111110Z 29004KT 14/12 A2993 RMK A01 T01430117  RH  088%=      5-min Rain = 0
KGGS 111115Z 30005KT 14/12 A2993 RMK A01 T01420115  RH  087%=      5-min Rain = 0
KGGS 111120Z 31006KT 14/11 A2994 RMK A01 T01380112  RH  087%=      5-min Rain = 0
KGGS 111125Z 30005KT 14/11 A2994 RMK A01 T01380113  RH  088%=      5-min Rain = 0
KGGS 111130Z 31005KT 14/11 A2994 RMK A01 T01370112  RH  088%=      5-min Rain = 0
KGGS 111135Z 33006KT 14/11 A2995 RMK A01 T01370112  RH  088%=      5-min Rain = 0
KGGS 111140Z 33007KT 14/11 A2996 RMK A01 T01360112  RH  088%=      5-min Rain = 0
KGGS 111145Z 33014G19KT 14/11 A2997 RMK A01 T01390108  RH  085%=      5-min Rain = 0
KGGS 111150Z 34015G21KT 14/10 A2997 RMK A01 T01410096  RH  077%=      5-min Rain = 0
KGGS 111155Z 35021G27KT 14/07 A2998 RMK A01 T01360065  RH  064%=      5-min Rain = 0
KGGS 111200Z 36021G26KT 13/05 A2998 RMK A01 T01260048  RH  060%=      5-min Rain = 0
KGGS 111205Z 36020G28KT 12/04 A2999 RMK A01 T01200044  RH  061%=      5-min Rain = 0
KGGS 111210Z 36021G27KT 12/04 A30 RMK A01 T01160041  RH  061%=      5-min Rain = 0
KGGS 111215Z 36019G25KT 11/04 A30 RMK A01 T01120041  RH  063%=      5-min Rain = 0
KGGS 111220Z 36020G25KT 11/04 A3001 RMK A01 T01100042  RH  064%=      5-min Rain = 0
KGGS 111225Z 00020G27KT 11/05 A3001 RMK A01 T01080049  RH  068%=      5-min Rain = 0
KGGS 111230Z 36018G25KT 11/05 A3001 RMK A01 T01070051  RH  070%=      5-min Rain = 0
KGGS 111235Z 36021G28KT 11/05 A3001 RMK A01 T01060052  RH  071%=      5-min Rain = 0
KGGS 111240Z 36021G29KT 11/06 A3002 RMK A01 T01050057  RH  074%=      5-min Rain = 0
KGGS 111245Z 00020G25KT 10/06 A3003 RMK A01 T01040059  RH  076%=      5-min Rain = 0
KGGS 111250Z 00018G25KT 10/06 A3004 RMK A01 T01030058  RH  076%=      5-min Rain = 0
KGGS 111255Z 00019G26KT 10/06 A3004 RMK A01 T01020058  RH  076%=      5-min Rain = 0
KGGS 111300Z 00017G22KT 10/06 A3005 RMK A01 T01020058  RH  076%=      5-min Rain = 0
KGGS 111305Z 00020G28KT 10/06 A3006 RMK A01 T01010056  RH  075%=      5-min Rain = 0
KGGS 111310Z 01018G26KT 10/05 A3007 RMK A01 T00990052  RH  074%=      5-min Rain = 0
KGGS 111315Z 01022G30KT 10/05 A3008 RMK A01 T00970048  RH  073%=      5-min Rain = 0
KGGS 111320Z 02020G26KT 10/05 A3008 RMK A01 T00960046  RH  073%=      5-min Rain = 0
KGGS 111325Z 02021G28KT 09/04 A3009 RMK A01 T00920042  RH  072%=      5-min Rain = 0
KGGS 111330Z 02022G29KT 09/04 A301 RMK A01 T00890039  RH  072%=      5-min Rain = 0
KGGS 111335Z 02023G29KT 09/04 A3011 RMK A01 T00860036  RH  072%=      5-min Rain = 0
KGGS 111340Z 02022G30KT 08/03 A3012 RMK A01 T00810029  RH  071%=      5-min Rain = 0
KGGS 111345Z 02020G27KT 08/03 A3012 RMK A01 T00790028  RH  071%=      5-min Rain = 0
KGGS 111350Z 02021G32KT 08/03 A3013 RMK A01 T00780026  RH  071%=      5-min Rain = 0
KGGS 111355Z 02022G27KT 08/02 A3013 RMK A01 T00760023  RH  070%=      5-min Rain = 0
KGGS 111400Z 02025G34KT 07/02 A3014 RMK A01 T00730019  RH  069%=      5-min Rain = 0
KGGS 111405Z 02022G30KT 07/02 A3015 RMK A01 T00700017  RH  070%=      5-min Rain = 0
KGGS 111410Z 01021G31KT 07/02 A3015 RMK A01 T00680015  RH  070%=      5-min Rain = 0
KGGS 111415Z 01021G30KT 06/01 A3016 RMK A01 T00630011  RH  070%=      5-min Rain = 0
KGGS 111420Z 02022G30KT 05/01 A3017 RMK A01 T00540006  RH  072%=      5-min Rain = 0
KGGS 111425Z 02021G29KT 05/00 A3018 RMK A01 T00490003  RH  073%=      5-min Rain = 0
KGGS 111430Z 02024G32KT 05/00 A3018 RMK A01 T00460000  RH  073%=      5-min Rain = 0
KGGS 111435Z 02021G29KT 04/00 A3019 RMK A01 T004400-0  RH  074%=      5-min Rain = 0
KGGS 111440Z 01023G32KT 04/M00 A302 RMK A01 T00431001  RH  074%=      5-min Rain = 0
KGGS 111445Z 01025G34KT 04/M00 A302 RMK A01 T00401003  RH  074%=      5-min Rain = 0
KGGS 111450Z 01023G32KT 04/M01 A3022 RMK A01 T00381005  RH  074%=      5-min Rain = 0
KGGS 111455Z 01023G30KT 04/M01 A3022 RMK A01 T00371007  RH  074%=      5-min Rain = 0
KGGS 111500Z 01023G31KT 04/M01 A3023 RMK A01 T00351008  RH  074%=      5-min Rain = 0
KGGS 111505Z 01022G30KT 03/M01 A3024 RMK A01 T00341010  RH  074%=      5-min Rain = 0
KGGS 111510Z 01022G27KT 03/M01 A3024 RMK A01 T00321013  RH  073%=      5-min Rain = 0
KGGS 111515Z 01022G30KT 03/M01 A3025 RMK A01 T00321013  RH  073%=      5-min Rain = 0
KGGS 111520Z 01023G29KT 03/M02 A3026 RMK A01 T00301015  RH  073%=      5-min Rain = 0
KGGS 111525Z 01020G26KT 03/M02 A3026 RMK A01 T00301015  RH  073%=      5-min Rain = 0
KGGS 111530Z 01020G30KT 03/M02 A3027 RMK A01 T00301015  RH  073%=      5-min Rain = 0
KGGS 111535Z 02021G30KT 03/M02 A3027 RMK A01 T00291016  RH  073%=      5-min Rain = 0
KGGS 111540Z 01020G25KT 03/M02 A3027 RMK A01 T00291017  RH  073%=      5-min Rain = 0
KGGS 111545Z 00022G34KT 03/M02 A3027 RMK A01 T00291017  RH  073%=      5-min Rain = 0
KGGS 111550Z 01024G32KT 03/M02 A3028 RMK A01 T00261019  RH  073%=      5-min Rain = 0
KGGS 111555Z 01022G31KT 03/M02 A3028 RMK A01 T00271019  RH  073%=      5-min Rain = 0
KGGS 111600Z 01023G30KT 03/M02 A3029 RMK A01 T00251019  RH  073%=      5-min Rain = 0
KGGS 111605Z 01022G31KT 02/M02 A3029 RMK A01 T00241020  RH  074%=      5-min Rain = 0
KGGS 111610Z 01025G33KT 02/M02 A3029 RMK A01 T00201023  RH  073%=      5-min Rain = 0
KGGS 111615Z 01023G33KT 02/M02 A303 RMK A01 T00201024  RH  073%=      5-min Rain = 0
KGGS 111620Z 01025G35KT 02/M03 A303 RMK A01 T00181026  RH  073%=      5-min Rain = 0
KGGS 111625Z 01023G34KT 02/M03 A3031 RMK A01 T00171025  RH  074%=      5-min Rain = 0
KGGS 111630Z 01024G32KT 02/M03 A3031 RMK A01 T00161026  RH  074%=      5-min Rain = 0
KGGS 111635Z 00023G31KT 01/M03 A3032 RMK A01 T00141028  RH  074%=      5-min Rain = 0
KGGS 111640Z 01025G34KT 01/M03 A3032 RMK A01 T00121031  RH  073%=      5-min Rain = 0
KGGS 111645Z 01024G32KT 01/M03 A3033 RMK A01 T00111033  RH  073%=      5-min Rain = 0
KGGS 111650Z 01022G29KT 01/M04 A3033 RMK A01 T00101035  RH  073%=      5-min Rain = 0
KGGS 111655Z 00025G32KT 01/M04 A3034 RMK A01 T00061038  RH  073%=      5-min Rain = 0
KGGS 111700Z 00023G31KT 01/M04 A3034 RMK A01 T00051038  RH  073%=      5-min Rain = 0
KGGS 111705Z 00025G33KT 00/M04 A3034 RMK A01 T00031040  RH  073%=      5-min Rain = 0
KGGS 111710Z 01026G34KT 00/M04 A3035 RMK A01 T00031041  RH  073%=      5-min Rain = 0
KGGS 111715Z 01026G34KT 00/M04 A3035 RMK A01 T00021042  RH  072%=      5-min Rain = 0
KGGS 111720Z 01025G32KT 00/M04 A3035 RMK A01 T00031041  RH  073%=      5-min Rain = 0
KGGS 111725Z 00025G34KT 00/M04 A3035 RMK A01 T00021041  RH  073%=      5-min Rain = 0
KGGS 111730Z 00024G33KT 00/04 A3036 RMK A01 T00-00-44  RH  073%=      5-min Rain = 0
KGGS 111735Z 00024G33KT 00/04 A3036 RMK A01 T00000-44  RH  073%=      5-min Rain = 0
KGGS 111740Z 00025G31KT M00/M05 A3036 RMK A01 T10011045  RH  072%=      5-min Rain = 0
KGGS 111745Z 01026G37KT M00/M05 A3036 RMK A01 T10021046  RH  072%=      5-min Rain = 0
KGGS 111750Z 00024G31KT M00/M05 A3036 RMK A01 T10021047  RH  072%=      5-min Rain = 0
KGGS 111755Z 00023G31KT M00/M05 A3037 RMK A01 T10021047  RH  072%=      5-min Rain = 0
KGGS 111800Z 00021G29KT M00/M05 A3037 RMK A01 T10021047  RH  072%=      5-min Rain = 0
KGGS 111805Z 01021G31KT M00/M05 A3037 RMK A01 T10011047  RH  072%=      5-min Rain = 0
KGGS 111810Z 01024G31KT 00/05 A3038 RMK A01 T00-00-49  RH  070%=      5-min Rain = 0
KGGS 111815Z 01025G36KT M00/M05 A3038 RMK A01 T10021052  RH  069%=      5-min Rain = 0
KGGS 111820Z 01022G30KT M00/M05 A3038 RMK A01 T10011052  RH  069%=      5-min Rain = 0
KGGS 111825Z 01026G34KT M00/M06 A3038 RMK A01 T10041055  RH  068%=      5-min Rain = 0
KGGS 111830Z 01025G33KT M00/M06 A3037 RMK A01 T10031055  RH  068%=      5-min Rain = 0
KGGS 111835Z 02023G32KT M00/M05 A3037 RMK A01 T10021053  RH  068%=      5-min Rain = 0
KGGS 111840Z 02026G35KT M00/M06 A3038 RMK A01 T10031055  RH  068%=      5-min Rain = 0
KGGS 111845Z 01023G32KT M00/M05 A3037 RMK A01 T10021053  RH  069%=      5-min Rain = 0
KGGS 111850Z 01026G35KT M00/M05 A3037 RMK A01 T10011053  RH  068%=      5-min Rain = 0
KGGS 111855Z 02024G31KT M00/M05 A3037 RMK A01 T10011053  RH  068%=      5-min Rain = 0
KGGS 111900Z 02024G31KT M00/M05 A3037 RMK A01 T10021053  RH  069%=      5-min Rain = 0
KGGS 111905Z 01024G30KT M00/M05 A3037 RMK A01 T10021053  RH  069%=      5-min Rain = 0
KGGS 111910Z 02023G31KT M00/M05 A3038 RMK A01 T10031054  RH  069%=      5-min Rain = 0
KGGS 111915Z 02020G27KT M00/M05 A3038 RMK A01 T10021053  RH  069%=      5-min Rain = 0
KGGS 111920Z 02018G28KT M00/M05 A3038 RMK A01 T10011052  RH  068%=      5-min Rain = 0
KGGS 111925Z 01023G30KT M00/M05 A3039 RMK A01 T10011054  RH  068%=      5-min Rain = 0
KGGS 111930Z 01022G28KT M00/M05 A3039 RMK A01 T10011054  RH  068%=      5-min Rain = 0
KGGS 111935Z 01019G28KT M00/M05 A3039 RMK A01 T10011054  RH  068%=      5-min Rain = 0
KGGS 111940Z 01020G26KT M00/M05 A3039 RMK A01 T10021054  RH  068%=      5-min Rain = 0
KGGS 111945Z 00022G30KT M00/M06 A304 RMK A01 T10031056  RH  068%=      5-min Rain = 0
KGGS 111950Z 01024G34KT M01/M06 A304 RMK A01 T10061059  RH  067%=      5-min Rain = 0
KGGS 111955Z 02022G32KT M01/M06 A304 RMK A01 T10061060  RH  067%=      5-min Rain = 0
KGGS 112000Z 02018G25KT M01/M06 A304 RMK A01 T10061059  RH  067%=      5-min Rain = 0
KGGS 112005Z 01020G28KT M01/M06 A304 RMK A01 T10051059  RH  067%=      5-min Rain = 0
KGGS 112010Z 00018G24KT M01/M06 A304 RMK A01 T10061061  RH  067%=      5-min Rain = 0
KGGS 112015Z 01020G30KT M01/M06 A304 RMK A01 T10061061  RH  066%=      5-min Rain = 0
KGGS 112020Z 01018G24KT M01/M06 A3039 RMK A01 T10071062  RH  066%=      5-min Rain = 0
KGGS 112025Z 02019G26KT M01/M06 A304 RMK A01 T10071063  RH  066%=      5-min Rain = 0
KGGS 112030Z 01016G24KT M01/M06 A3041 RMK A01 T10071062  RH  066%=      5-min Rain = 0
KGGS 112035Z 36018G25KT M01/M06 A3041 RMK A01 T10071063  RH  066%=      5-min Rain = 0
KGGS 112040Z 01021G27KT M01/M07 A3041 RMK A01 T10091067  RH  065%=      5-min Rain = 0
KGGS 112045Z 01019G27KT M01/M07 A3041 RMK A01 T10101070  RH  064%=      5-min Rain = 0
KGGS 112050Z 01019G25KT M01/M07 A3042 RMK A01 T10101071  RH  063%=      5-min Rain = 0
KGGS 112055Z 01016G25KT M01/M07 A3042 RMK A01 T10081070  RH  063%=      5-min Rain = 0
KGGS 112100Z 01020G27KT M01/M08 A3043 RMK A01 T10091075  RH  061%=      5-min Rain = 0
KGGS 112105Z 01018G24KT M01/M07 A3043 RMK A01 T10091074  RH  061%=      5-min Rain = 0
KGGS 112110Z 01020G26KT M01/M08 A3043 RMK A01 T10081076  RH  060%=      5-min Rain = 0
KGGS 112115Z 01018G27KT M01/M08 A3043 RMK A01 T10081078  RH  059%=      5-min Rain = 0
KGGS 112120Z 01020G26KT M01/M08 A3044 RMK A01 T10071079  RH  058%=      5-min Rain = 0
KGGS 112125Z 01017G27KT M01/M08 A3044 RMK A01 T10061078  RH  058%=      5-min Rain = 0
KGGS 112130Z 01018G26KT M01/M08 A3044 RMK A01 T10061079  RH  058%=      5-min Rain = 0
KGGS 112135Z 01017G25KT M01/M08 A3045 RMK A01 T10051077  RH  058%=      5-min Rain = 0
KGGS 112140Z 02018G23KT M01/M08 A3045 RMK A01 T10061079  RH  058%=      5-min Rain = 0
KGGS 112145Z 02017G22KT M01/M08 A3045 RMK A01 T10051077  RH  058%=      5-min Rain = 0
KGGS 112150Z 01016G23KT M00/M08 A3045 RMK A01 T10041076  RH  058%=      5-min Rain = 0
KGGS 112155Z 00019G26KT M01/M08 A3045 RMK A01 T10051079  RH  057%=      5-min Rain = 0
KGGS 112200Z 01018G24KT M01/M08 A3045 RMK A01 T10061081  RH  056%=      5-min Rain = 0
KGGS 112205Z 00015G23KT M00/M08 A3046 RMK A01 T10041078  RH  057%=      5-min Rain = 0
KGGS 112210Z 00019G26KT M01/M08 A3047 RMK A01 T10051082  RH  056%=      5-min Rain = 0
KGGS 112215Z 01020G30KT M01/M09 A3046 RMK A01 T10061085  RH  055%=      5-min Rain = 0
KGGS 112220Z 01018G24KT M01/M09 A3046 RMK A01 T10061087  RH  054%=      5-min Rain = 0
KGGS 112225Z 01020G26KT M01/M09 A3045 RMK A01 T10061089  RH  054%=      5-min Rain = 0
KGGS 112230Z 01020G29KT M01/M09 A3045 RMK A01 T10061089  RH  053%=      5-min Rain = 0
KGGS 112235Z 01020G27KT M01/M09 A3045 RMK A01 T10061089  RH  053%=      5-min Rain = 0
KGGS 112240Z 01020G26KT M01/M09 A3045 RMK A01 T10051090  RH  053%=      5-min Rain = 0
KGGS 112245Z 01018G25KT M01/M09 A3046 RMK A01 T10051090  RH  052%=      5-min Rain = 0
KGGS 112250Z 01019G24KT M00/M09 A3046 RMK A01 T10041091  RH  052%=      5-min Rain = 0
KGGS 112255Z 00019G24KT M00/M09 A3047 RMK A01 T10041092  RH  051%=      5-min Rain = 0
KGGS 112300Z 01018G27KT M00/M09 A3047 RMK A01 T10021092  RH  051%=      5-min Rain = 0
KGGS 112305Z 01021G27KT M00/M10 A3047 RMK A01 T10031095  RH  050%=      5-min Rain = 0
KGGS 112310Z 01021G29KT M00/M10 A3047 RMK A01 T10021095  RH  049%=      5-min Rain = 0
KGGS 112315Z 01018G25KT M00/M10 A3048 RMK A01 T10021096  RH  049%=      5-min Rain = 0
KGGS 112320Z 02016G22KT M00/M09 A3048 RMK A01 T10021094  RH  050%=      5-min Rain = 0
KGGS 112325Z 02013G20KT M00/M09 A3048 RMK A01 T10021090  RH  051%=      5-min Rain = 0
KGGS 112330Z 01018G24KT M00/M09 A3049 RMK A01 T10021094  RH  050%=      5-min Rain = 0
KGGS 112335Z 01020G26KT M00/M10 A3049 RMK A01 T10021098  RH  048%=      5-min Rain = 0
KGGS 112340Z 02020G27KT M00/M10 A3049 RMK A01 T10031099  RH  048%=      5-min Rain = 0
KGGS 112345Z 02019G25KT M00/M10 A3049 RMK A01 T10041100  RH  048%=      5-min Rain = 0
KGGS 112350Z 02017G23KT M00/M10 A305 RMK A01 T10031097  RH  049%=      5-min Rain = 0
KGGS 112355Z 02020G29KT M00/M10 A305 RMK A01 T10041100  RH  048%=      5-min Rain = 0
KGGS 120000Z 02017G22KT M00/M10 A305 RMK A01 T10031097  RH  049%=      5-min Rain = 0
KGGS 120005Z 01017G23KT M00/M10 A3051 RMK A01 T10031098  RH  048%=      5-min Rain = 0
KGGS 120010Z 02013G19KT M00/M10 A3051 RMK A01 T10031096  RH  049%=      5-min Rain = 0
KGGS 120015Z 02014G19KT M00/M10 A3051 RMK A01 T10021095  RH  050%=      5-min Rain = 0
KGGS 120020Z 01016G22KT M00/M10 A3052 RMK A01 T10031099  RH  048%=      5-min Rain = 0
KGGS 120025Z 01014G21KT M00/M10 A3052 RMK A01 T10021098  RH  048%=      5-min Rain = 0
KGGS 120030Z 01012G18KT M00/M10 A3052 RMK A01 T10021095  RH  049%=      5-min Rain = 0
KGGS 120035Z 01012G17KT M00/M09 A3052 RMK A01 T10021094  RH  050%=      5-min Rain = 0
KGGS 120040Z 01012KT M00/M09 A3052 RMK A01 T10021094  RH  050%=      5-min Rain = 0
KGGS 120045Z 01013G19KT M00/M09 A3052 RMK A01 T10021093  RH  050%=      5-min Rain = 0
KGGS 120050Z 01015KT M00/M10 A3053 RMK A01 T10021095  RH  049%=      5-min Rain = 0
KGGS 120055Z 01016G24KT M00/M10 A3053 RMK A01 T10021097  RH  049%=      5-min Rain = 0
KGGS 120100Z 01016G22KT M00/M10 A3052 RMK A01 T10021097  RH  048%=      5-min Rain = 0
KGGS 120105Z 01016G23KT M00/M10 A3053 RMK A01 T10021097  RH  049%=      5-min Rain = 0
KGGS 120110Z 01015G21KT M00/M10 A3052 RMK A01 T10021097  RH  049%=      5-min Rain = 0
KGGS 120115Z 01014G19KT M00/M10 A3053 RMK A01 T10021096  RH  049%=      5-min Rain = 0
KGGS 120120Z 02013G20KT M00/M10 A3053 RMK A01 T10031095  RH  050%=      5-min Rain = 0
KGGS 120125Z 01015G21KT M00/M10 A3053 RMK A01 T10031097  RH  049%=      5-min Rain = 0
KGGS 120130Z 01011KT M00/M10 A3054 RMK A01 T10041095  RH  050%=      5-min Rain = 0
KGGS 120135Z 02010G15KT M00/M09 A3054 RMK A01 T10041094  RH  051%=      5-min Rain = 0
KGGS 120140Z 01011KT M00/M10 A3054 RMK A01 T10041095  RH  050%=      5-min Rain = 0
KGGS 120145Z 01011KT M01/M09 A3054 RMK A01 T10051094  RH  051%=      5-min Rain = 0
KGGS 120150Z 01012G17KT M01/M10 A3055 RMK A01 T10051095  RH  050%=      5-min Rain = 0
KGGS 120155Z 02012KT M01/M10 A3055 RMK A01 T10051096  RH  050%=      5-min Rain = 0
KGGS 120200Z 01013G18KT M01/M10 A3055 RMK A01 T10051097  RH  050%=      5-min Rain = 0
KGGS 120205Z 01011G16KT M01/M10 A3055 RMK A01 T10051097  RH  050%=      5-min Rain = 0
KGGS 120210Z 01014G19KT M01/M10 A3056 RMK A01 T10051098  RH  050%=      5-min Rain = 0
KGGS 120215Z 01011G16KT M01/M10 A3056 RMK A01 T10061097  RH  050%=      5-min Rain = 0
KGGS 120220Z 01011G17KT M01/M10 A3055 RMK A01 T10061095  RH  051%=      5-min Rain = 0
KGGS 120225Z 01011KT M01/M09 A3055 RMK A01 T10071094  RH  051%=      5-min Rain = 0
KGGS 120230Z 01010KT M01/M09 A3055 RMK A01 T10071094  RH  052%=      5-min Rain = 0
KGGS 120235Z 01012G17KT M01/M09 A3055 RMK A01 T10081094  RH  052%=      5-min Rain = 0
KGGS 120240Z 02014G19KT M01/M10 A3055 RMK A01 T10081097  RH  050%=      5-min Rain = 0
KGGS 120245Z 02013KT M01/M10 A3056 RMK A01 T10081098  RH  050%=      5-min Rain = 0
KGGS 120250Z 02013G18KT M01/M10 A3056 RMK A01 T10081097  RH  051%=      5-min Rain = 0
KGGS 120255Z 02011G18KT M01/M10 A3056 RMK A01 T10091097  RH  051%=      5-min Rain = 0
KGGS 120300Z 02012G19KT M01/M10 A3057 RMK A01 T10091098  RH  051%=      5-min Rain = 0
KGGS 120305Z 02011G16KT M01/M10 A3057 RMK A01 T10101098  RH  051%=      5-min Rain = 0
KGGS 120310Z 02011KT M01/M10 A3057 RMK A01 T10101098  RH  051%=      5-min Rain = 0
KGGS 120315Z 02010G15KT M01/M10 A3057 RMK A01 T10121096  RH  053%=      5-min Rain = 0
KGGS 120320Z 02013KT M01/M10 A3057 RMK A01 T10121098  RH  052%=      5-min Rain = 0
KGGS 120325Z 02015KT M01/M10 A3057 RMK A01 T10121102  RH  050%=      5-min Rain = 0
KGGS 120330Z 02013G18KT M01/M10 A3057 RMK A01 T10131103  RH  050%=      5-min Rain = 0
KGGS 120335Z 02014KT M01/M10 A3057 RMK A01 T10141104  RH  050%=      5-min Rain = 0
KGGS 120340Z 02012G17KT M01/M10 A3057 RMK A01 T10141103  RH  051%=      5-min Rain = 0
KGGS 120345Z 02014G19KT M02/M10 A3058 RMK A01 T10151104  RH  051%=      5-min Rain = 0
KGGS 120350Z 02014G23KT M02/M11 A3058 RMK A01 T10151106  RH  050%=      5-min Rain = 0
KGGS 120355Z 02015G21KT M02/M11 A3058 RMK A01 T10151112  RH  048%=      5-min Rain = 0
KGGS 120400Z 01014G22KT M02/M11 A3058 RMK A01 T10161112  RH  048%=      5-min Rain = 0
KGGS 120405Z 01014G19KT M02/M11 A3058 RMK A01 T10161113  RH  047%=      5-min Rain = 0
KGGS 120410Z 01015G20KT M02/M11 A3059 RMK A01 T10161113  RH  047%=      5-min Rain = 0
KGGS 120415Z 01012G17KT M02/M11 A3059 RMK A01 T10171111  RH  049%=      5-min Rain = 0
KGGS 120420Z 02013G22KT M02/M11 A3059 RMK A01 T10181109  RH  050%=      5-min Rain = 0
KGGS 120425Z 02013KT M02/M11 A3058 RMK A01 T10191111  RH  049%=      5-min Rain = 0
KGGS 120430Z 02013G18KT M02/M11 A3059 RMK A01 T10191112  RH  049%=      5-min Rain = 0
KGGS 120435Z 01014G20KT M02/M11 A3059 RMK A01 T10201112  RH  049%=      5-min Rain = 0
KGGS 120440Z 01014G19KT M02/M11 A3059 RMK A01 T10201113  RH  049%=      5-min Rain = 0
KGGS 120445Z 01015G20KT M02/M11 A3059 RMK A01 T10201114  RH  049%=      5-min Rain = 0
KGGS 120450Z 01012KT M02/M11 A3059 RMK A01 T10211111  RH  050%=      5-min Rain = 0
KGGS 120455Z 01014KT M02/M11 A3059 RMK A01 T10211112  RH  050%=      5-min Rain = 0
KGGS 120500Z 02016G23KT M02/M12 A3059 RMK A01 T10211116  RH  048%=      5-min Rain = 0
KGGS 120505Z 01016G21KT M02/M12 A306 RMK A01 T10211119  RH  047%=      5-min Rain = 0
KGGS 120510Z 01015G20KT M02/M12 A3061 RMK A01 T10221119  RH  047%=      5-min Rain = 0
KGGS 120515Z 01014KT M02/M12 A306 RMK A01 T10231117  RH  048%=      5-min Rain = 0
KGGS 120520Z 02014G19KT M02/M12 A306 RMK A01 T10231118  RH  048%=      5-min Rain = 0
KGGS 120525Z 02014G19KT M02/M12 A306 RMK A01 T10231120  RH  047%=      5-min Rain = 0
KGGS 120530Z 01015G20KT M02/M12 A306 RMK A01 T10241120  RH  047%=      5-min Rain = 0
KGGS 120535Z 01014KT M02/M12 A306 RMK A01 T10241120  RH  047%=      5-min Rain = 0
KGGS 120540Z 01014G19KT M03/M12 A306 RMK A01 T10251122  RH  047%=      5-min Rain = 0
KGGS 120545Z 01017G22KT M03/M13 A306 RMK A01 T10251126  RH  045%=      5-min Rain = 0
KGGS 120550Z 01015KT M03/M13 A306 RMK A01 T10261126  RH  046%=      5-min Rain = 0
KGGS 120555Z 01015KT M03/M13 A3061 RMK A01 T10261126  RH  046%=      5-min Rain = 0

Page generated in 0.0099 seconds.